Pagina principale
METAR-TAF:

METAR-TAF

Aeroporti :

Meiringen, Svizzera

latitudine: 46-44-25N, longitudine: 8-06-36E, altezza: 577 m

Osservazione

Il bollettino è stato emesso 21 minuti fa, alle 15:50 UTC
Vento 2 kt da direzioni variabili
Temperature 10°C
Umidità 76%
Pressione 1027 hPa
Visibilità 10 km o più
Nuvoloso ad un'altezza di 12000 ft

METAR: LSMM 231550Z AUTO VRB02KT 9999NDV BKN120 10/06 Q1027 RMK

Ora: 18:11 (16:11 UTC)


TAF: mancante

Osservazioni e previsioni meteorologiche di più di 4000 aeroporti (messaggi METAR e TAF).

Le stazioni disponibili sono rappresentate dai dischi gialli e rossi sulla carta.

Puntare il mouse per vedere il nome della stazione.

Clicca sopra per visualizzare le osservazioni e previsioni meteorologiche.

Per cambiare la mappa : fare clic sui pulsanti verdi con una croce nera per ingrandire, il pulsante verde con un trattino per diminuire, o sulla freccia verde per le mappe adiacenti.


METAR-TAF: